Aurelius, New York
Current Conditions -  °F | °C
As of 12:54 PM on Sunday 25 Jan 2015 (Local Time) from KSYR Reporting Station
Few Clouds Few Clouds  
Wind Chill: -14°   Ceiling: Unl
Heat Index: -8°   Visibility: 10mi
Dew Point: -14°   Wind: 8mph
Humidity: 65%   Direction: 300°WNW
Pressure: 29.9"   Gusts: NA
Location:  42.9235°N, 76.5525°W
Report Text: KSYR 251754Z 30007KT 10SM FEW028 FEW200 M08/M14 A2990 RMK AO2 SLP126 4/002 60000 T10831139 11056 21094 51016 $
Loading
Personal Weather Stations






























Interactive Weather Map New forecast layout! Learn more

10-Day Weather Forecast

Advertisements
Track Severe Weather on mobile